• Join FlightAware (Why Join?)
  • Login
  • US Flag 
02:11AM EDT


 

Airport Tracker/Info


-or-


 

Live Flight TrackerFlight Track Log ✈ SEJ108 ✈ 06-Jul-2013 ✈ VOCI / COK - VOHS / HYD

Flight Track Log - Related Links

Times and Time Zones

All times are in EDT time to prevent confusion due to time zone crossing. See the SEJ108 flight status page for this flight to view local times or setup timezone preferences in your user account.

Time Position Orientation Groundspeed Altitude Reporting Facility
EDT Latitude Longitude Course Direction KTS MPH feet Rate Location/Type
03:27AM 10.1530 76.3740 299° West 160 184 1,500  Level FlightAware
03:27AM 10.1610 76.3660 315° West 192 221 1,800 1,380 Climbing FlightAware
03:27AM 10.1730 76.3630 346° North 216 249 2,100 2,820 Climbing FlightAware
03:28AM 10.1990 76.3670 North 210 242 3,700 3,420 Climbing FlightAware
03:28AM 10.2270 76.3660 358° North 207 238 5,300 3,300 Climbing FlightAware
03:29AM 10.2430 76.3640 353° North 213 245 6,200 3,000 Climbing FlightAware
03:29AM 10.2650 76.3620 355° North 219 252 7,200 3,060 Climbing FlightAware
03:29AM 10.2790 76.3620 360° North 220 253 8,000 3,120 Climbing FlightAware
03:30AM 10.3020 76.3620 360° North 232 267 9,100 2,760 Climbing FlightAware
03:30AM 10.3420 76.3660 North 233 268 10,800 2,700 Climbing FlightAware
03:31AM 10.3950 76.3800 15° North 273 314 12,900 2,640 Climbing FlightAware
03:31AM 10.4230 76.3940 26° Northeast 290 334 13,900 1,920 Climbing FlightAware
03:32AM 10.4800 76.4240 27° Northeast 346 398 15,100 1,800 Climbing FlightAware
03:33AM 10.5400 76.4550 27° Northeast 377 434 16,500 2,460 Climbing FlightAware
03:34AM 10.6110 76.4920 27° Northeast 387 445 18,600 2,940 Climbing FlightAware
03:34AM 10.6750 76.5250 27° Northeast 387 445 20,700 2,700 Climbing FlightAware
03:35AM 10.7430 76.5600 27° Northeast 397 457 22,400 2,160 Climbing FlightAware
03:36AM 10.8160 76.5980 27° Northeast 413 475 23,800 1,860 Climbing FlightAware
03:36AM 10.8750 76.6280 27° Northeast 426 490 24,800 1,680 Climbing FlightAware
03:37AM 10.9500 76.6670 27° Northeast 441 507 25,900 1,800 Climbing FlightAware
03:38AM 11.0300 76.7080 27° Northeast 447 514 27,400 1,920 Climbing FlightAware
03:38AM 11.0980 76.7430 27° Northeast 450 518 28,500 1,740 Climbing FlightAware
03:39AM 11.1690 76.7800 27° Northeast 456 525 29,600 1,680 Climbing FlightAware
03:39AM 11.2480 76.8140 23° Northeast 462 532 30,700 1,500 Climbing FlightAware
03:40AM 11.3410 76.8460 19° North 468 539 31,800 1,620 Climbing FlightAware
03:41AM 11.4290 76.8760 18° North 466 536 33,100 1,920 Climbing FlightAware
03:42AM 11.5190 76.9070 19° North 460 529 34,600 1,920 Climbing FlightAware
03:42AM 11.5980 76.9350 19° North 455 524 35,800 1,800 Climbing FlightAware
03:43AM 11.6690 76.9600 19° North 449 517 36,900 1,680 Climbing FlightAware
03:44AM 11.7520 76.9890 19° North 447 514 38,000 1,200 Climbing FlightAware
03:44AM 11.8310 77.0160 18° North 454 522 38,600 840 Climbing FlightAware
03:45AM 11.9020 77.0410 19° North 457 526 39,100 1,020 Climbing FlightAware
03:46AM 12.0050 77.0770 19° North 454 522 40,100 1,260 Climbing FlightAware
03:46AM 12.0820 77.1040 19° North 442 509 41,000 600 Climbing FlightAware
03:47AM 12.1640 77.1330 19° North 431 496 41,000  Level FlightAware
03:48AM 12.2470 77.1620 19° North 430 495 41,000  Level FlightAware
03:48AM 12.3100 77.1830 18° North 430 495 41,000  Level FlightAware
03:49AM 12.3870 77.2060 16° North 424 488 41,000  Level FlightAware
03:50AM 12.4690 77.2300 16° North 419 482 41,000  Level FlightAware
03:50AM 12.5330 77.2490 16° North 418 481 41,000  Level FlightAware
03:51AM 12.6050 77.2700 16° North 417 480 41,000  Level FlightAware
03:52AM 12.6900 77.2960 17° North 419 482 41,000  Level FlightAware
03:52AM 12.7620 77.3170 16° North 421 484 41,000  Level FlightAware
03:53AM 12.8370 77.3390 16° North 421 484 41,000  Level FlightAware
03:54AM 12.8990 77.3580 17° North 423 487 41,000  Level FlightAware
03:54AM 12.9940 77.3870 17° North 424 488 41,000  Level FlightAware
03:55AM 13.0560 77.4050 16° North 425 489 41,000  Level FlightAware
03:56AM 13.1320 77.4280 16° North 426 490 41,000  Level FlightAware
03:57AM 13.2190 77.4540 16° North 425 489 41,000  Level FlightAware
03:58AM 13.3520 77.4930 16° North 428 493 41,000  Level FlightAware
03:58AM 13.4340 77.5180 17° North 429 494 41,000  Level FlightAware
03:59AM 13.5110 77.5410 16° North 431 496 41,000  Level FlightAware
04:00AM 13.5980 77.5670 16° North 430 495 41,000  Level FlightAware
04:00AM 13.6750 77.5900 16° North 430 495 41,000  Level FlightAware
04:01AM 13.7580 77.6150 16° North 431 496 41,000  Level FlightAware
04:02AM 13.8330 77.6370 16° North 429 494 41,000  Level FlightAware
04:02AM 13.9060 77.6590 16° North 428 493 41,000  Level FlightAware
04:03AM 13.9770 77.6800 16° North 428 493 41,000  Level FlightAware
04:04AM 14.0630 77.7060 16° North 427 491 41,000  Level FlightAware
04:05AM 14.1430 77.7300 16° North 430 495 41,000 -180 Level FlightAware
04:05AM 14.2200 77.7540 17° North 434 499 40,800 -660 Descending FlightAware
04:06AM 14.3060 77.7790 16° North 447 514 40,100 -960 Descending FlightAware
04:07AM 14.3860 77.8040 17° North 447 514 39,500 -960 Descending FlightAware
04:07AM 14.4730 77.8300 16° North 450 518 38,800 -960 Descending FlightAware
04:08AM 14.5540 77.8540 16° North 452 520 38,200 -1,020 Descending FlightAware
04:09AM 14.6420 77.8810 17° North 443 510 37,400 -1,080 Descending FlightAware
04:09AM 14.7180 77.9040 16° North 427 491 36,700 -1,080 Descending FlightAware
04:10AM 14.8030 77.9300 16° North 412 474 35,900 -1,080 Descending FlightAware
04:11AM 14.8730 77.9510 16° North 405 466 35,200 -1,140 Descending FlightAware
04:11AM 14.9390 77.9710 16° North 402 463 34,500 -1,080 Descending FlightAware
04:12AM 15.0100 77.9920 16° North 398 458 33,900 -1,020 Descending FlightAware
04:13AM 15.0880 78.0160 17° North 397 457 33,100 -660 Descending FlightAware
04:14AM 15.1660 78.0400 17° North 394 453 33,000 -180 Descending FlightAware
04:14AM 15.2260 78.0580 16° North 396 456 32,900 -60 Descending FlightAware
04:15AM 15.3170 78.0850 16° North 396 456 32,900 -1,200 Level FlightAware
04:16AM 15.4090 78.1070 13° North 390 449 30,800 -1,380 Descending FlightAware
04:17AM 15.5130 78.1240 North 397 457 30,500 -960 Descending FlightAware
04:18AM 15.6060 78.1570 19° North 396 456 29,100 -1,080 Descending FlightAware
04:18AM 15.6630 78.1740 16° North 395 455 29,000 -120 Descending FlightAware
04:19AM 15.7350 78.1950 16° North 395 455 29,000  Level FlightAware
04:20AM 15.7890 78.2120 17° North 395 455 29,000  Level FlightAware
04:21AM 15.8600 78.2330 16° North 395 455 29,000  Level FlightAware
04:21AM 15.9140 78.2490 16° North 395 455 29,000 -6,120 Level FlightAware
04:22AM 16.0450 78.3030 22° Northeast 353 406 20,600 -6,600 Descending FlightAware
04:23AM 16.1070 78.3250 19° North 342 394 19,500 -1,740 Descending FlightAware
04:23AM 16.1670 78.3470 19° North 339 390 18,300 -1,620 Descending FlightAware
04:24AM 16.2240 78.3680 19° North 329 379 17,300 -1,740 Descending FlightAware
04:25AM 16.2950 78.3950 20° North 326 375 15,800 -1,740 Descending FlightAware
04:25AM 16.3510 78.4170 21° North 318 366 14,800 -1,560 Descending FlightAware
04:26AM 16.4180 78.4420 20° North 311 358 13,500 -1,680 Descending FlightAware
04:27AM 16.4740 78.4650 21° North 307 353 12,300 -1,680 Descending FlightAware
04:28AM 16.5400 78.4930 22° Northeast 297 342 11,000 -1,560 Descending FlightAware
04:28AM 16.5880 78.5140 23° Northeast 296 341 10,000 -1,680 Descending FlightAware
04:29AM 16.6290 78.5250 14° North 293 337 9,100 -1,620 Descending FlightAware
04:29AM 16.6660 78.5340 13° North 289 333 8,400 -1,140 Descending FlightAware
04:30AM 16.6970 78.5410 12° North 274 315 8,100 -1,500 Descending FlightAware
04:30AM 16.7250 78.5470 12° North 282 325 7,300 -1,080 Descending FlightAware
04:31AM 16.7600 78.5550 12° North 260 299 7,200 -120 Descending FlightAware
04:31AM 16.7910 78.5610 10° North 238 274 7,200  Level FlightAware
04:32AM 16.8180 78.5660 10° North 236 272 7,200 -120 Level FlightAware
04:32AM 16.8470 78.5710 North 236 272 7,100 -780 Descending FlightAware
04:32AM 16.8800 78.5780 11° North 237 273 6,500 -1,140 Descending FlightAware
04:33AM 16.9100 78.5830 North 235 270 6,000 -1,080 Descending FlightAware
04:33AM 16.9450 78.5900 11° North 228 262 5,400 -1,080 Descending FlightAware
04:34AM 16.9710 78.5950 10° North 228 262 5,000 -1,020 Descending FlightAware
04:34AM 17.0020 78.6000 North 227 261 4,500 -960 Descending FlightAware
04:35AM 17.0330 78.6060 10° North 228 262 4,100 -780 Descending FlightAware
04:35AM 17.0450 78.6090 13° North 228 262 4,000 -480 Descending FlightAware
04:35AM 17.0730 78.6140 10° North 227 261 3,800 -240 Descending FlightAware
04:36AM 17.1020 78.6190 North 214 246 3,800  Level FlightAware
04:36AM 17.1320 78.6200 North 206 237 3,800  Level FlightAware
04:37AM 17.1580 78.6220 North 193 222 3,800  Level FlightAware
04:37AM 17.1810 78.6230 North 180 207 3,800  Level FlightAware
04:38AM 17.2080 78.6110 337° Northwest 165 190 3,800  Level FlightAware
04:38AM 17.2130 78.6030 303° West 164 189 3,800  Level FlightAware
04:39AM 17.2260 78.5820 303° West 164 189 3,800  Level FlightAware
04:39AM 17.2310 78.5760 311° West 163 188 3,800  Level FlightAware
04:39AM 17.2320 78.5700 280° West 166 191 3,800 -240 Level FlightAware
04:40AM 17.2300 78.5370 266° West 149 171 3,600 -360 Descending FlightAware
04:40AM 17.2300 78.5280 270° West 143 165 3,500 -780 Descending FlightAware
04:41AM 17.2300 78.5070 270° West 150 173 3,100 -780 Descending FlightAware
04:41AM 17.2300 78.4990 270° West 148 170 3,000 -720 Descending FlightAware
04:41AM 17.2290 78.4820 266° West 146 168 2,700 -660 Descending FlightAware
04:42AM 17.2290 78.4480 270° West 142 163 2,200 -600 Descending FlightAware
04:45AM 17.2540 78.4310 327° Northwest  Level Estimated